Time;durP1;ratioP1;P1;durP2;ratioP2;P2;SDS_P1;SDS_P2;PMS_P1;PMS_P2;Temp;Humidity;BMP_temperature;BMP_pressure;BME280_temperature;BME280_humidity;BME280_pressure;Samples;Min_cycle;Max_cycle;Signal;HPM_P1;HPM_P2
2023/05/03 00:04:23;1145548.00;3.82;1992.07;182936.00;0.61;316.55;;;;;14.40;1.00;;;;;;2560568;41;2056;-84
2023/05/03 00:12:03;757306.00;2.52;1306.76;19218.00;0.06;33.92;;;;;14.30;1.00;;;;;;2560217;56;899;-84
2023/05/03 00:14:53;120554720.00;401.85;70976152.00;45710.00;0.15;79.77;;;;;14.00;1.00;;;;;;2562534;56;1767;-84
2023/05/03 00:17:21;237889.00;0.79;411.12;0.00;0.00;0.62;;;;;14.20;1.00;;;;;;2548816;40;3665;-83
2023/05/03 00:19:54;318475.00;1.06;549.68;0.00;0.00;0.62;;;;;14.30;1.00;;;;;;2555519;56;3696;-82
2023/05/03 00:22:26;429400.00;1.43;740.35;0.00;0.00;0.62;;;;;14.40;1.00;;;;;;2562433;56;1576;-82
2023/05/03 00:24:55;473350.00;1.58;815.95;24773.00;0.08;43.53;;;;;14.50;1.00;;;;;;2556064;56;1432;-84
2023/05/03 00:27:39;202791.00;0.68;350.73;0.00;0.00;0.62;;;;;14.60;1.00;;;;;;2562403;40;3562;-85
2023/05/03 00:30:11;364451.00;1.21;628.70;0.00;0.00;0.62;;;;;14.40;1.00;;;;;;2567675;56;1605;-83
2023/05/03 00:32:40;183158.00;0.61;316.93;0.00;0.00;0.62;;;;;14.20;1.00;;;;;;2567582;56;1580;-85
2023/05/03 00:35:19;167256.00;0.56;289.54;0.00;0.00;0.62;;;;;14.50;1.00;;;;;;2567640;56;1667;-82
2023/05/03 00:37:54;227543.00;0.76;393.32;0.00;0.00;0.62;;;;;14.50;1.00;;;;;;2567652;56;1576;-85
2023/05/03 00:40:23;393138.00;1.31;678.01;0.00;0.00;0.62;;;;;15.00;1.00;;;;;;2567560;56;1685;-83
2023/05/03 00:45:35;92478.00;0.31;160.59;0.00;0.00;0.62;;;;;14.30;1.00;;;;;;2551549;40;2100;-85
2023/05/03 00:48:07;208402.00;0.69;360.39;0.00;0.00;0.62;;;;;14.20;1.00;;;;;;2567334;56;1899;-84
2023/05/03 00:50:48;383087.00;1.28;660.73;0.00;0.00;0.62;;;;;14.30;1.00;;;;;;2564249;40;3644;-84
2023/05/03 00:58:49;511218.00;1.70;881.14;88875.00;0.30;154.37;;;;;13.70;1.00;;;;;;2559995;56;1765;-84
2023/05/03 01:14:33;355336.00;1.18;613.03;76506.00;0.26;133.00;;;;;14.30;1.00;;;;;;2545623;40;2055;-83
2023/05/03 01:17:18;481473.00;1.60;829.93;89630.00;0.30;155.67;;;;;14.20;1.00;;;;;;2562438;56;1600;-84
2023/05/03 01:19:53;769850.00;2.57;1328.59;79204.00;0.26;137.66;;;;;14.60;1.00;;;;;;2555641;56;1327;-86
2023/05/03 01:22:37;712111.00;2.37;1228.25;91231.00;0.30;158.43;;;;;14.80;1.00;;;;;;2562319;56;1601;-85
2023/05/03 01:27:43;677701.00;2.26;1168.59;184280.00;0.61;318.86;;;;;14.80;1.00;;;;;;2560199;56;1941;-85
2023/05/03 01:30:18;514234.00;1.71;886.33;0.00;0.00;0.62;;;;;14.90;1.00;;;;;;2562519;56;1121;-84
2023/05/03 01:33:15;314074.00;1.05;542.11;0.00;0.00;0.62;;;;;15.10;1.00;;;;;;2562381;56;1287;-84
2023/05/03 01:35:52;1150538.00;3.84;2001.04;190645.00;0.64;329.82;;;;;15.30;1.00;;;;;;2559009;56;3673;-83
2023/05/03 01:59:12;1156153.00;3.85;2011.14;123140.00;0.41;213.50;;;;;14.30;1.00;;;;;;2560150;56;926;-84
2023/05/03 02:01:41;1751574.00;5.84;3126.08;111795.00;0.37;193.93;;;;;14.60;1.00;;;;;;2562430;56;1493;-85
2023/05/03 02:55:21;427602.00;1.43;737.26;0.00;0.00;0.62;;;;;13.50;1.00;;;;;;2547052;40;2068;-84
2023/05/03 03:21:10;1392998.00;4.64;2443.34;84013.00;0.28;145.97;;;;;13.50;1.00;;;;;;2551301;41;1842;-83
2023/05/03 03:23:44;1246715.00;4.16;2174.91;136140.00;0.45;235.92;;;;;13.10;1.00;;;;;;2549987;40;3548;-83
2023/05/03 03:36:31;208884.00;0.70;361.21;0.00;0.00;0.62;;;;;14.10;1.00;;;;;;2551955;40;3375;-83
2023/05/03 03:41:37;272445.00;0.91;470.55;42914.00;0.14;74.93;;;;;14.30;1.00;;;;;;2556595;56;2087;-84
2023/05/03 03:46:45;102063.00;0.34;177.13;0.00;0.00;0.62;;;;;13.90;1.00;;;;;;2552683;56;3472;-85
2023/05/03 04:32:53;519737.00;1.73;895.81;102827.00;0.34;178.45;;;;;12.90;1.00;;;;;;2551459;40;3493;-88
2023/05/03 04:40:31;605427.00;2.02;1043.59;126989.00;0.42;220.14;;;;;13.00;1.00;;;;;;2559042;56;2452;-86
2023/05/03 04:55:41;243932.00;0.81;421.51;23217.00;0.08;40.84;;;;;13.60;1.00;;;;;;2550142;40;3524;-84
2023/05/03 05:13:39;384011.00;1.28;662.32;97079.00;0.32;168.53;;;;;14.10;1.00;;;;;;2546781;40;2741;-86
2023/05/03 05:21:17;105826.00;0.35;183.63;0.00;0.00;0.62;;;;;13.50;1.00;;;;;;2549271;40;2055;-86
2023/05/03 05:23:45;368646.00;1.23;635.91;23694.00;0.08;41.67;;;;;13.90;1.00;;;;;;2552849;40;3634;-87
2023/05/03 05:28:50;39155.00;0.13;68.43;0.00;0.00;0.62;;;;;14.20;1.00;;;;;;2558001;41;2134;-84
2023/05/03 05:36:31;227312.00;0.76;392.92;0.00;0.00;0.62;;;;;14.50;1.00;;;;;;2560345;40;3497;-86
2023/05/03 05:46:43;181933.00;0.61;314.82;0.00;0.00;0.62;;;;;14.90;1.00;;;;;;2560992;56;1117;-83
2023/05/03 05:49:15;382905.00;1.28;660.42;11076.00;0.04;19.81;;;;;14.60;1.00;;;;;;2558123;40;3360;-88
2023/05/03 05:54:20;561132.00;1.87;967.15;3708.00;0.01;7.05;;;;;14.40;1.00;;;;;;2541145;40;2874;-87
2023/05/03 06:02:00;267803.00;0.89;462.57;0.00;0.00;0.62;;;;;14.50;1.00;;;;;;2552359;41;3410;-83
2023/05/03 06:17:26;535326.00;1.78;922.67;124553.00;0.42;215.94;;;;;15.20;1.00;;;;;;2555407;40;2760;-87
2023/05/03 06:19:54;318942.00;1.06;550.48;97971.00;0.33;170.07;;;;;14.60;1.00;;;;;;2565392;56;1211;-86
2023/05/03 06:24:57;254776.00;0.85;440.16;0.00;0.00;0.62;;;;;14.60;1.00;;;;;;2560292;56;1301;-86
2023/05/03 06:27:25;363769.00;1.21;627.53;0.00;0.00;0.62;;;;;14.60;1.00;;;;;;2562673;56;1956;-85
2023/05/03 06:40:15;397073.00;1.32;684.77;0.00;0.00;0.62;;;;;14.50;1.00;;;;;;2554527;56;1732;-86
2023/05/03 06:42:44;223264.00;0.74;385.96;0.00;0.00;0.62;;;;;14.30;1.00;;;;;;2557427;56;1713;-84
2023/05/03 06:45:14;406472.00;1.35;700.93;63052.00;0.21;109.75;;;;;14.10;1.00;;;;;;2555473;56;1245;-85
2023/05/03 06:47:42;320882.00;1.07;553.81;0.00;0.00;0.62;;;;;14.30;1.00;;;;;;2557221;56;1918;-83
2023/05/03 06:50:21;528611.00;1.76;911.10;0.00;0.00;0.62;;;;;14.50;1.00;;;;;;2551554;41;3701;-85
2023/05/03 06:52:51;345976.00;1.15;596.94;16049.00;0.05;28.43;;;;;14.10;1.00;;;;;;2560175;56;1236;-87
2023/05/03 07:10:46;281667.00;0.94;486.40;0.00;0.00;0.62;;;;;14.50;1.00;;;;;;2545689;40;3536;-86
2023/05/03 07:18:24;549223.00;1.83;946.62;34757.00;0.12;60.82;;;;;14.50;1.00;;;;;;2560411;56;924;-86
2023/05/03 07:33:54;3544147.00;11.81;7427.15;1706193.00;5.69;3037.46;;;;;15.20;1.00;;;;;;2553111;56;1442;-87
2023/05/03 07:46:42;525027.00;1.75;904.92;87835.00;0.29;152.57;;;;;16.80;1.00;;;;;;2558154;40;3445;-85
2023/05/03 08:02:02;245868.00;0.82;424.84;0.00;0.00;0.62;;;;;18.40;1.00;;;;;;2551203;40;3525;-86
2023/05/03 08:09:47;203462.00;0.68;351.88;21029.00;0.07;37.05;;;;;18.00;1.00;;;;;;2550731;40;2050;-86
2023/05/03 08:12:21;411972.00;1.37;710.39;67632.00;0.23;117.67;;;;;18.50;1.00;;;;;;2561839;40;3536;-84
2023/05/03 08:38:35;77323.00;0.26;134.41;0.00;0.00;0.62;;;;;23.30;1.00;;;;;;2545387;40;2919;-88
2023/05/03 09:27:24;45336.00;0.15;79.12;0.00;0.00;0.62;;;;;19.70;1.00;;;;;;2558928;56;1729;-87
2023/05/03 09:32:50;494717.00;1.65;852.73;91557.00;0.31;159.00;;;;;18.50;1.00;;;;;;2565249;56;1792;-87
2023/05/03 09:43:11;1520472.00;5.07;2681.70;268277.00;0.89;463.38;;;;;19.90;1.00;;;;;;2558780;40;3345;-87
2023/05/03 09:53:31;626777.00;2.09;1080.48;120883.00;0.40;209.61;;;;;18.30;1.00;;;;;;2560134;56;1480;-85
2023/05/03 09:55:59;186243.00;0.62;322.24;0.00;0.00;0.62;;;;;18.40;1.00;;;;;;2562772;56;1706;-85
2023/05/03 09:58:33;295468.00;0.98;510.13;0.00;0.00;0.62;;;;;18.70;1.00;;;;;;2561299;56;3654;-85
2023/05/03 10:03:38;98046.00;0.33;170.20;0.00;0.00;0.62;;;;;20.00;1.00;;;;;;2550513;56;1319;-87
2023/05/03 10:16:20;328586.00;1.10;567.06;0.00;0.00;0.62;;;;;19.00;1.00;;;;;;2560512;56;853;-89
2023/05/03 10:21:26;524829.00;1.75;904.58;8621.00;0.03;15.56;;;;;19.20;1.00;;;;;;2560535;56;831;-88
2023/05/03 10:24:14;565123.00;1.88;974.04;0.00;0.00;0.62;;;;;19.50;1.00;;;;;;2557452;56;3670;-88
2023/05/03 10:26:42;59322.00;0.20;103.30;0.00;0.00;0.62;;;;;19.40;1.00;;;;;;2562669;56;1688;-90
2023/05/03 10:29:47;65586.00;0.22;114.13;0.00;0.00;0.62;;;;;19.30;1.00;;;;;;2562493;56;1969;-88
2023/05/03 10:34:56;220091.00;0.73;380.50;0.00;0.00;0.62;;;;;18.70;1.00;;;;;;2560642;56;1201;-88
2023/05/03 10:37:27;169310.00;0.56;293.08;0.00;0.00;0.62;;;;;19.30;1.00;;;;;;2562841;56;989;-88
2023/05/03 10:39:55;94063.00;0.31;163.32;0.00;0.00;0.62;;;;;19.10;1.00;;;;;;2562829;56;1025;-88
2023/05/03 10:42:24;59543.00;0.20;103.69;0.00;0.00;0.62;;;;;19.30;1.00;;;;;;2558652;40;3517;-88
2023/05/03 10:44:53;226277.00;0.75;391.14;0.00;0.00;0.62;;;;;19.20;1.00;;;;;;2560531;56;1406;-89
2023/05/03 10:50:25;79918.00;0.27;138.90;0.00;0.00;0.62;;;;;18.80;1.00;;;;;;2550322;56;1878;-88
2023/05/03 10:55:23;125053.00;0.42;216.80;0.00;0.00;0.62;;;;;19.00;1.00;;;;;;2555482;56;895;-88
2023/05/03 10:57:54;22755.00;0.08;40.04;0.00;0.00;0.62;;;;;19.10;1.00;;;;;;2557610;56;1449;-88
2023/05/03 11:03:22;379098.00;1.26;653.87;0.00;0.00;0.62;;;;;19.10;1.00;;;;;;2556318;40;3523;-86
2023/05/03 11:05:51;50344.00;0.17;87.78;0.00;0.00;0.62;;;;;19.10;1.00;;;;;;2561861;56;1556;-84
2023/05/03 11:08:19;148788.00;0.50;257.72;0.00;0.00;0.62;;;;;19.10;1.00;;;;;;2561986;56;1957;-85
2023/05/03 11:10:48;42438.00;0.14;74.11;0.00;0.00;0.62;;;;;18.90;1.00;;;;;;2559814;56;1096;-85
2023/05/03 11:13:15;72573.00;0.24;126.21;0.00;0.00;0.62;;;;;19.00;1.00;;;;;;2559921;56;2232;-84
2023/05/03 11:15:43;123027.00;0.41;213.30;0.00;0.00;0.62;;;;;19.20;1.00;;;;;;2560093;56;1142;-84
2023/05/03 11:18:11;76815.00;0.26;133.54;0.00;0.00;0.62;;;;;19.30;1.00;;;;;;2562082;56;1106;-86
2023/05/03 11:20:38;274993.00;0.92;474.93;20756.00;0.07;36.58;;;;;19.00;1.00;;;;;;2562335;56;1127;-84
2023/05/03 11:23:07;52347.00;0.17;91.24;0.00;0.00;0.62;;;;;19.40;1.00;;;;;;2562221;56;1736;-86
2023/05/03 11:25:34;49265.00;0.16;85.92;0.00;0.00;0.62;;;;;19.00;1.00;;;;;;2562260;56;1648;-84
2023/05/03 11:28:05;46729.00;0.16;81.53;0.00;0.00;0.62;;;;;19.00;1.00;;;;;;2562160;56;1183;-85
2023/05/03 11:33:02;59048.00;0.20;102.83;0.00;0.00;0.62;;;;;19.50;1.00;;;;;;2554678;56;1283;-85
2023/05/03 11:35:30;93324.00;0.31;162.05;0.00;0.00;0.62;;;;;19.20;1.00;;;;;;2555123;56;1075;-84
2023/05/03 11:37:57;12893.00;0.04;22.96;0.00;0.00;0.62;;;;;19.30;1.00;;;;;;2557493;56;1210;-85
2023/05/03 11:40:28;157127.00;0.52;272.09;0.00;0.00;0.62;;;;;19.70;1.00;;;;;;2557750;56;1139;-84
2023/05/03 11:42:57;50326.00;0.17;87.75;0.00;0.00;0.62;;;;;19.70;1.00;;;;;;2555226;56;1435;-84
2023/05/03 11:45:25;59335.00;0.20;103.33;0.00;0.00;0.62;;;;;19.70;1.00;;;;;;2555289;56;1193;-84
2023/05/03 11:47:53;62241.00;0.21;108.35;0.00;0.00;0.62;;;;;19.50;1.00;;;;;;2556855;56;1511;-84
2023/05/03 11:50:27;122338.00;0.41;212.12;8554.00;0.03;15.44;;;;;19.40;1.00;;;;;;2557349;56;1964;-84
2023/05/03 11:52:55;216778.00;0.72;374.80;0.00;0.00;0.62;;;;;19.80;1.00;;;;;;2557468;56;1305;-85
2023/05/03 11:55:23;101214.00;0.34;175.67;0.00;0.00;0.62;;;;;19.70;1.00;;;;;;2557716;56;1083;-84
2023/05/03 11:57:51;226227.00;0.75;391.06;65582.00;0.22;114.13;;;;;19.70;1.00;;;;;;2556988;56;1174;-84
2023/05/03 12:00:21;314197.00;1.05;542.32;0.00;0.00;0.62;;;;;19.50;1.00;;;;;;2554927;56;1137;-84
2023/05/03 12:02:48;148345.00;0.49;256.96;0.00;0.00;0.62;;;;;19.50;1.00;;;;;;2557609;56;1301;-87
2023/05/03 12:05:17;91319.00;0.30;158.59;0.00;0.00;0.62;;;;;19.40;1.00;;;;;;2557408;56;1107;-85
2023/05/03 12:07:45;1258.00;0.00;2.80;0.00;0.00;0.62;;;;;20.00;1.00;;;;;;2557329;56;1597;-85
2023/05/03 12:10:17;315960.00;1.05;545.35;35512.00;0.12;62.12;;;;;19.40;1.00;;;;;;2557227;56;1987;-84
2023/05/03 12:13:00;157263.00;0.52;272.32;37741.00;0.13;65.98;;;;;19.40;1.00;;;;;;2557312;56;1413;-83
2023/05/03 12:15:36;39615.00;0.13;69.22;0.00;0.00;0.62;;;;;19.80;1.00;;;;;;2557123;56;1119;-83
2023/05/03 12:18:06;113861.00;0.38;197.49;0.00;0.00;0.62;;;;;19.50;1.00;;;;;;2557387;56;1519;-84
2023/05/03 12:20:33;16832.00;0.06;29.78;0.00;0.00;0.62;;;;;19.60;1.00;;;;;;2557223;56;1652;-85
2023/05/03 12:23:02;88721.00;0.30;154.10;0.00;0.00;0.62;;;;;19.40;1.00;;;;;;2557161;56;1696;-84
2023/05/03 12:25:30;26101.00;0.09;45.83;0.00;0.00;0.62;;;;;19.70;1.00;;;;;;2557221;56;1742;-85
2023/05/03 12:28:01;123492.00;0.41;214.11;0.00;0.00;0.62;;;;;19.60;1.00;;;;;;2557328;56;1075;-84
2023/05/03 12:30:29;325581.00;1.09;561.89;76217.00;0.25;132.50;;;;;19.70;1.00;;;;;;2557370;56;1964;-84
2023/05/03 12:32:55;42800.00;0.14;74.73;0.00;0.00;0.62;;;;;19.60;1.00;;;;;;2557253;56;1573;-85
2023/05/03 12:35:23;398159.00;1.33;686.64;170440.00;0.57;295.02;;;;;19.70;1.00;;;;;;2557361;56;1563;-85
2023/05/03 12:37:51;148419.00;0.49;257.08;39143.00;0.13;68.41;;;;;19.50;1.00;;;;;;2555451;56;1083;-85
2023/05/03 12:40:19;83283.00;0.28;144.71;0.00;0.00;0.62;;;;;19.30;1.00;;;;;;2557386;56;1105;-85
2023/05/03 12:42:46;10348.00;0.03;18.55;0.00;0.00;0.62;;;;;19.40;1.00;;;;;;2557530;56;1254;-86
2023/05/03 12:45:14;110402.00;0.37;191.52;0.00;0.00;0.62;;;;;19.50;1.00;;;;;;2557114;56;1684;-85
2023/05/03 12:47:41;258247.00;0.86;446.13;50292.00;0.17;87.69;;;;;19.60;1.00;;;;;;2555348;56;1157;-85
2023/05/03 12:50:09;131576.00;0.44;228.05;0.00;0.00;0.62;;;;;19.80;1.00;;;;;;2555258;56;1952;-88
2023/05/03 12:52:37;45835.00;0.15;79.98;0.00;0.00;0.62;;;;;19.90;1.00;;;;;;2557539;56;1262;-85
2023/05/03 12:55:05;74078.00;0.25;128.81;0.00;0.00;0.62;;;;;20.20;1.00;;;;;;2557264;56;1012;-84
2023/05/03 12:57:33;47820.00;0.16;83.42;0.00;0.00;0.62;;;;;20.10;1.00;;;;;;2557160;56;1515;-83
2023/05/03 13:00:00;22535.00;0.08;39.66;0.00;0.00;0.62;;;;;20.10;1.00;;;;;;2555282;56;1119;-84
2023/05/03 13:02:29;118921.00;0.40;206.22;0.00;0.00;0.62;;;;;20.40;1.00;;;;;;2555156;56;1177;-82
2023/05/03 13:04:56;86074.00;0.29;149.53;0.00;0.00;0.62;;;;;20.50;1.00;;;;;;2557000;56;1622;-85
2023/05/03 13:07:26;122586.00;0.41;212.54;0.00;0.00;0.62;;;;;20.60;1.00;;;;;;2557422;56;1115;-85
2023/05/03 13:09:53;167725.00;0.56;290.35;0.00;0.00;0.62;;;;;20.30;1.00;;;;;;2557284;56;1902;-84
2023/05/03 13:12:21;56096.00;0.19;97.73;0.00;0.00;0.62;;;;;19.90;1.00;;;;;;2557348;56;1508;-86
2023/05/03 13:14:48;168316.00;0.56;291.37;0.00;0.00;0.62;;;;;19.90;1.00;;;;;;2555297;56;1353;-85
2023/05/03 13:17:16;177637.00;0.59;307.42;0.00;0.00;0.62;;;;;19.50;1.00;;;;;;2557049;56;1206;-85
2023/05/03 13:19:46;15379.00;0.05;27.27;0.00;0.00;0.62;;;;;19.40;1.00;;;;;;2557045;56;1691;-84
2023/05/03 13:22:13;102972.00;0.34;178.70;0.00;0.00;0.62;;;;;19.60;1.00;;;;;;2555184;56;1154;-84
2023/05/03 13:24:42;94690.00;0.32;164.41;0.00;0.00;0.62;;;;;19.90;1.00;;;;;;2557295;56;2304;-84
2023/05/03 13:27:10;54600.00;0.18;95.14;0.00;0.00;0.62;;;;;19.70;1.00;;;;;;2555376;56;1100;-85
2023/05/03 13:29:37;24879.00;0.08;43.72;0.00;0.00;0.62;;;;;19.70;1.00;;;;;;2557363;56;1952;-85
2023/05/03 13:32:05;82354.00;0.27;143.10;115.00;0.00;0.82;;;;;19.40;1.00;;;;;;2554900;56;1088;-84
2023/05/03 13:34:32;129961.00;0.43;225.26;0.00;0.00;0.62;;;;;19.70;1.00;;;;;;2557227;56;1286;-84
2023/05/03 13:37:02;20362.00;0.07;35.90;0.00;0.00;0.62;;;;;20.10;1.00;;;;;;2557158;56;1520;-85
2023/05/03 13:39:32;6746.00;0.02;12.31;0.00;0.00;0.62;;;;;20.40;1.00;;;;;;2556886;56;1621;-84
2023/05/03 13:41:59;25312.00;0.08;44.47;0.00;0.00;0.62;;;;;20.90;1.00;;;;;;2557421;56;1650;-84
2023/05/03 13:44:26;162665.00;0.54;281.63;0.00;0.00;0.62;;;;;20.80;1.00;;;;;;2555198;56;1335;-84
2023/05/03 13:46:54;84945.00;0.28;147.58;0.00;0.00;0.62;;;;;20.60;1.00;;;;;;2555035;56;1096;-84
2023/05/03 13:49:21;139816.00;0.47;242.25;41227.00;0.14;72.01;;;;;19.90;1.00;;;;;;2557039;56;1902;-87
2023/05/03 13:51:48;13223.00;0.04;23.53;0.00;0.00;0.62;;;;;19.70;1.00;;;;;;2557426;56;1131;-84
2023/05/03 13:54:16;186377.00;0.62;322.47;0.00;0.00;0.62;;;;;19.70;1.00;;;;;;2555104;56;1323;-84
2023/05/03 13:56:43;507099.00;1.69;874.05;162654.00;0.54;281.61;;;;;19.80;1.00;;;;;;2555305;56;1067;-85
2023/05/03 13:59:12;19630.00;0.07;34.63;0.00;0.00;0.62;;;;;19.70;1.00;;;;;;2555311;56;1099;-85
2023/05/03 14:01:40;200610.00;0.67;346.97;0.00;0.00;0.62;;;;;20.10;1.00;;;;;;2555353;56;1153;-85
2023/05/03 14:04:07;71654.00;0.24;124.62;0.00;0.00;0.62;;;;;20.40;1.00;;;;;;2557328;56;1244;-84
2023/05/03 14:06:33;217925.00;0.73;376.77;0.00;0.00;0.62;;;;;19.90;1.00;;;;;;2563488;56;3708;-87
2023/05/03 14:09:02;197180.00;0.66;341.07;60065.00;0.20;104.59;;;;;19.80;1.00;;;;;;2565772;56;1944;-86
2023/05/03 14:11:31;126679.00;0.42;219.60;0.00;0.00;0.62;;;;;20.10;1.00;;;;;;2567622;56;1578;-86
2023/05/03 14:13:57;137311.00;0.46;237.94;0.00;0.00;0.62;;;;;20.40;1.00;;;;;;2565252;56;1370;-84
2023/05/03 14:16:26;34339.00;0.11;60.09;0.00;0.00;0.62;;;;;20.50;1.00;;;;;;2567440;56;1597;-83
2023/05/03 14:18:54;97354.00;0.32;169.00;0.00;0.00;0.62;;;;;20.20;1.00;;;;;;2567528;56;1233;-84
2023/05/03 14:21:21;103610.00;0.35;179.80;0.00;0.00;0.62;;;;;20.10;1.00;;;;;;2567560;56;1539;-84
2023/05/03 14:23:49;235655.00;0.79;407.28;63055.00;0.21;109.76;;;;;20.20;1.00;;;;;;2567591;56;1539;-86
2023/05/03 14:26:17;136846.00;0.46;237.13;0.00;0.00;0.62;;;;;20.50;1.00;;;;;;2567244;56;1562;-84
2023/05/03 14:28:46;37487.00;0.12;65.54;0.00;0.00;0.62;;;;;20.40;1.00;;;;;;2565316;56;1070;-85
2023/05/03 14:31:16;35573.00;0.12;62.23;0.00;0.00;0.62;;;;;20.30;1.00;;;;;;2567351;56;1964;-85
2023/05/03 14:33:43;25607.00;0.09;44.98;0.00;0.00;0.62;;;;;20.60;1.00;;;;;;2567448;56;1354;-85
2023/05/03 14:36:12;158242.00;0.53;274.01;42093.00;0.14;73.51;;;;;20.60;1.00;;;;;;2567527;56;1659;-85
2023/05/03 14:38:39;77188.00;0.26;134.18;0.00;0.00;0.62;;;;;20.70;1.00;;;;;;2567257;56;1748;-84
2023/05/03 14:41:06;50485.00;0.17;88.02;0.00;0.00;0.62;;;;;20.40;1.00;;;;;;2565293;56;1122;-85
2023/05/03 14:43:33;21326.00;0.07;37.57;0.00;0.00;0.62;;;;;20.40;1.00;;;;;;2565266;56;1274;-85
2023/05/03 14:46:01;46119.00;0.15;80.47;0.00;0.00;0.62;;;;;20.60;1.00;;;;;;2567168;56;1126;-84
2023/05/03 14:48:28;23264.00;0.08;40.92;0.00;0.00;0.62;;;;;20.20;1.00;;;;;;2564641;56;1123;-84
2023/05/03 14:50:55;314339.00;1.05;542.57;0.00;0.00;0.62;;;;;19.80;1.00;;;;;;2565296;56;1969;-86
2023/05/03 14:53:22;45219.00;0.15;78.92;0.00;0.00;0.62;;;;;19.80;1.00;;;;;;2565734;56;1351;-86
2023/05/03 14:55:50;51706.00;0.17;90.14;0.00;0.00;0.62;;;;;19.70;1.00;;;;;;2565660;56;1028;-87
2023/05/03 14:58:17;533044.00;1.78;918.74;107411.00;0.36;186.36;;;;;19.60;1.00;;;;;;2565687;56;1150;-86
2023/05/03 15:00:44;62880.00;0.21;109.46;0.00;0.00;0.62;;;;;19.50;1.00;;;;;;2565727;56;1082;-87
2023/05/03 15:03:13;33327.00;0.11;58.34;0.00;0.00;0.62;;;;;20.10;1.00;;;;;;2565582;56;1411;-84
2023/05/03 15:05:44;288571.00;0.96;498.27;90131.00;0.30;156.53;;;;;20.70;1.00;;;;;;2567919;56;1632;-84
2023/05/03 15:08:13;32372.00;0.11;56.69;0.00;0.00;0.62;;;;;21.00;1.00;;;;;;2565923;56;1052;-88
2023/05/03 15:10:40;107589.00;0.36;186.67;0.00;0.00;0.62;;;;;20.60;1.00;;;;;;2565803;56;1962;-85
2023/05/03 15:13:07;35288.00;0.12;61.74;0.00;0.00;0.62;;;;;20.30;1.00;;;;;;2565700;56;1290;-84
2023/05/03 15:15:34;34580.00;0.12;60.51;0.00;0.00;0.62;;;;;20.00;1.00;;;;;;2567570;56;1086;-84
2023/05/03 15:18:01;3648.00;0.01;6.94;0.00;0.00;0.62;;;;;20.20;1.00;;;;;;2565749;56;1111;-84
2023/05/03 15:20:30;87173.00;0.29;151.43;0.00;0.00;0.62;;;;;20.00;1.00;;;;;;2567836;56;1787;-86
2023/05/03 15:22:57;78177.00;0.26;135.89;0.00;0.00;0.62;;;;;20.40;1.00;;;;;;2568006;56;1716;-86
2023/05/03 15:25:23;27388.00;0.09;48.06;0.00;0.00;0.62;;;;;20.80;1.00;;;;;;2564265;56;3683;-87
2023/05/03 15:27:51;75409.00;0.25;131.11;0.00;0.00;0.62;;;;;21.00;1.00;;;;;;2568002;56;947;-89
2023/05/03 15:30:18;107992.00;0.36;187.37;0.00;0.00;0.62;;;;;20.90;1.00;;;;;;2566383;56;3526;-85
2023/05/03 15:32:45;23466.00;0.08;41.27;0.00;0.00;0.62;;;;;21.00;1.00;;;;;;2567931;56;1551;-88
2023/05/03 15:35:14;137816.00;0.46;238.81;0.00;0.00;0.62;;;;;21.40;1.00;;;;;;2565894;56;1035;-87
2023/05/03 15:37:42;153242.00;0.51;265.39;19413.00;0.06;34.25;;;;;21.60;1.00;;;;;;2564894;56;3697;-86
2023/05/03 15:40:10;59284.00;0.20;103.24;0.00;0.00;0.62;;;;;21.30;1.00;;;;;;2566067;56;1128;-86
2023/05/03 15:42:38;20581.00;0.07;36.28;0.00;0.00;0.62;;;;;20.90;1.00;;;;;;2565813;56;1283;-87
2023/05/03 15:45:07;62368.00;0.21;108.57;0.00;0.00;0.62;;;;;21.00;1.00;;;;;;2563646;56;3679;-89
2023/05/03 15:47:34;38510.00;0.13;67.31;0.00;0.00;0.62;;;;;21.20;1.00;;;;;;2568000;56;1229;-87
2023/05/03 15:50:07;98454.00;0.33;170.90;0.00;0.00;0.62;;;;;21.40;1.00;;;;;;2561170;40;3525;-88
2023/05/03 15:55:03;2385.00;0.01;4.75;0.00;0.00;0.62;;;;;21.70;1.00;;;;;;2552634;56;3551;-85
2023/05/03 15:57:31;44461.00;0.15;77.61;0.00;0.00;0.62;;;;;21.80;1.00;;;;;;2562281;56;1116;-84
2023/05/03 15:59:58;82795.00;0.28;143.87;0.00;0.00;0.62;;;;;21.70;1.00;;;;;;2562553;56;1626;-84
2023/05/03 16:02:25;30708.00;0.10;53.81;0.00;0.00;0.62;;;;;21.60;1.00;;;;;;2562163;40;3551;-83
2023/05/03 16:04:52;61232.00;0.20;106.61;0.00;0.00;0.62;;;;;21.00;1.00;;;;;;2565137;56;1380;-85
2023/05/03 16:09:53;137599.00;0.46;238.43;26500.00;0.09;46.52;;;;;20.70;1.00;;;;;;2560622;56;1934;-84
2023/05/03 16:14:52;29936.00;0.10;52.47;0.00;0.00;0.62;;;;;20.80;1.00;;;;;;2555728;56;1356;-83
2023/05/03 16:17:19;38745.00;0.13;67.72;0.00;0.00;0.62;;;;;21.00;1.00;;;;;;2555340;56;1112;-84
2023/05/03 16:19:46;50168.00;0.17;87.48;0.00;0.00;0.62;;;;;20.70;1.00;;;;;;2550223;40;3530;-85
2023/05/03 16:22:13;106624.00;0.36;185.00;0.00;0.00;0.62;;;;;20.90;1.00;;;;;;2562769;56;2098;-85
2023/05/03 16:27:10;191888.00;0.64;331.96;0.00;0.00;0.62;;;;;21.20;1.00;;;;;;2555293;56;3532;-86
2023/05/03 16:29:37;111445.00;0.37;193.32;0.00;0.00;0.62;;;;;21.60;1.00;;;;;;2552474;56;1894;-88
2023/05/03 16:32:08;181946.00;0.61;314.84;0.00;0.00;0.62;;;;;21.70;1.00;;;;;;2558438;41;3515;-87
2023/05/03 16:37:06;177362.00;0.59;306.95;0.00;0.00;0.62;;;;;21.60;1.00;;;;;;2560523;56;721;-86
2023/05/03 16:44:32;36377.00;0.12;63.62;0.00;0.00;0.62;;;;;22.20;1.00;;;;;;2561452;56;1374;-85
2023/05/03 16:46:59;112088.00;0.37;194.43;0.00;0.00;0.62;;;;;22.10;1.00;;;;;;2562691;56;1697;-85
2023/05/03 16:49:33;0.00;0.00;0.62;0.00;0.00;0.62;;;;;22.10;1.00;;;;;;2561996;56;1636;-85
2023/05/03 16:52:00;68254.00;0.23;118.74;0.00;0.00;0.62;;;;;22.10;1.00;;;;;;2562522;56;1974;-83
2023/05/03 16:54:28;16346.00;0.05;28.94;0.00;0.00;0.62;;;;;22.40;1.00;;;;;;2560176;56;1364;-84
2023/05/03 16:57:00;108669.00;0.36;188.53;0.00;0.00;0.62;;;;;22.30;1.00;;;;;;2559261;56;3749;-86
2023/05/03 17:01:55;167408.00;0.56;289.80;84071.00;0.28;146.07;;;;;21.60;1.00;;;;;;2554850;56;931;-85
2023/05/03 17:06:51;174117.00;0.58;301.36;80199.00;0.27;139.38;;;;;21.30;1.00;;;;;;2560557;56;806;-86
2023/05/03 17:09:18;266733.00;0.89;460.73;92037.00;0.31;159.82;;;;;21.20;1.00;;;;;;2562790;56;1071;-85
2023/05/03 17:11:45;213098.00;0.71;368.47;89258.00;0.30;155.03;;;;;20.80;1.00;;;;;;2560211;56;1913;-86
2023/05/03 17:14:12;520613.00;1.74;897.32;123228.00;0.41;213.65;;;;;20.90;1.00;;;;;;2556280;56;3675;-86
2023/05/03 17:16:40;45987.00;0.15;80.25;0.00;0.00;0.62;;;;;21.10;1.00;;;;;;2561723;56;3639;-86
2023/05/03 17:19:08;280626.00;0.94;484.61;0.00;0.00;0.62;;;;;21.40;1.00;;;;;;2564592;41;3501;-85
2023/05/03 17:21:38;20876.00;0.07;36.79;0.00;0.00;0.62;;;;;21.50;1.00;;;;;;2565716;56;1052;-87
2023/05/03 17:24:07;291969.00;0.97;504.11;79396.00;0.26;137.99;;;;;21.70;1.00;;;;;;2567686;56;1358;-85
2023/05/03 17:26:34;480727.00;1.60;828.65;83277.00;0.28;144.70;;;;;21.90;1.00;;;;;;2564568;40;3491;-86
2023/05/03 17:29:01;203018.00;0.68;351.12;78224.00;0.26;135.97;;;;;21.70;1.00;;;;;;2565011;56;1184;-87
2023/05/03 17:31:32;256489.00;0.85;443.11;79853.00;0.27;138.78;;;;;21.10;1.00;;;;;;2567552;56;1918;-84
2023/05/03 17:34:00;219845.00;0.73;380.08;85653.00;0.29;148.80;;;;;20.90;1.00;;;;;;2567823;56;1388;-85
2023/05/03 17:36:28;261021.00;0.87;450.90;88391.00;0.29;153.53;;;;;20.80;1.00;;;;;;2565589;56;1241;-86
2023/05/03 17:46:22;256633.00;0.86;443.36;85207.00;0.28;148.03;;;;;21.00;1.00;;;;;;2560666;56;810;-87
2023/05/03 17:48:50;501927.00;1.67;865.14;99659.00;0.33;172.98;;;;;21.10;1.00;;;;;;2554542;40;3583;-88
2023/05/03 17:51:17;1562107.00;5.21;2760.54;355503.00;1.19;613.32;;;;;20.80;1.00;;;;;;2562636;56;1945;-88
2023/05/03 17:53:44;350248.00;1.17;604.29;86765.00;0.29;150.72;;;;;20.70;1.00;;;;;;2562688;56;3718;-86
2023/05/03 17:56:14;410472.00;1.37;707.81;76380.00;0.25;132.78;;;;;20.80;1.00;;;;;;2567850;56;1112;-87
2023/05/03 17:58:42;381683.00;1.27;658.32;88110.00;0.29;153.04;;;;;20.90;1.00;;;;;;2567708;56;922;-84
2023/05/03 18:01:09;370941.00;1.24;639.85;89407.00;0.30;155.28;;;;;21.10;1.00;;;;;;2564806;56;3726;-85
2023/05/03 18:03:38;234127.00;0.78;404.65;78882.00;0.26;137.11;;;;;21.10;1.00;;;;;;2567635;56;1319;-84
2023/05/03 18:06:06;270469.00;0.90;467.15;66554.00;0.22;115.81;;;;;20.90;1.00;;;;;;2567070;56;1573;-85